createdAt,value
2023-02-03T00:00:41.172Z,67.19
2023-02-03T00:03:29.410Z,67.37
2023-02-03T00:05:57.910Z,67.21
2023-02-03T00:08:27.399Z,67.33
2023-02-03T00:10:56.144Z,67.35
2023-02-03T00:13:26.117Z,67.30
2023-02-03T00:15:54.895Z,67.25
2023-02-03T00:18:23.484Z,67.14
2023-02-03T00:20:52.177Z,66.69
2023-02-03T00:23:22.184Z,67.30
2023-02-03T00:25:50.631Z,67.46
2023-02-03T00:28:20.898Z,67.86
2023-02-03T00:30:54.362Z,67.77
2023-02-03T00:33:22.629Z,67.76
2023-02-03T00:35:50.750Z,67.85
2023-02-03T00:38:18.900Z,67.84
2023-02-03T00:40:55.924Z,68.23
2023-02-03T00:43:24.485Z,68.87
2023-02-03T00:45:52.965Z,69.67
2023-02-03T00:48:21.581Z,70.06
2023-02-03T00:50:49.748Z,69.91
2023-02-03T00:53:19.589Z,70.33
2023-02-03T00:55:48.455Z,69.87
2023-02-03T00:58:16.756Z,70.60
2023-02-03T01:00:45.247Z,70.35
2023-02-03T01:03:13.459Z,69.88
2023-02-03T01:05:41.537Z,70.05
2023-02-03T01:08:09.472Z,70.36
2023-02-03T01:10:38.534Z,69.93
2023-02-03T01:13:06.734Z,69.79
2023-02-03T01:15:34.857Z,69.71
2023-02-03T01:18:03.375Z,69.62
2023-02-03T01:20:32.075Z,69.36
2023-02-03T01:23:01.309Z,69.44
2023-02-03T01:25:29.786Z,69.25
2023-02-03T01:27:58.272Z,69.29
2023-02-03T01:30:27.605Z,69.12
2023-02-03T01:32:56.056Z,69.05
2023-02-03T01:35:24.261Z,69.03
2023-02-03T01:37:52.844Z,68.93
2023-02-03T01:40:23.198Z,68.88
2023-02-03T01:42:54.199Z,69.24
2023-02-03T01:45:22.660Z,68.85
2023-02-03T01:47:55.713Z,68.81
2023-02-03T01:50:32.515Z,68.89
2023-02-03T01:53:05.478Z,69.48
2023-02-03T01:55:38.866Z,70.35
2023-02-03T01:58:20.420Z,70.71
2023-02-03T02:00:49.947Z,70.53
2023-02-03T02:03:21.615Z,69.94
2023-02-03T02:05:54.745Z,69.85
2023-02-03T02:08:24.918Z,70.15
2023-02-03T02:10:53.752Z,69.99
2023-02-03T02:13:23.251Z,69.49
2023-02-03T02:16:13.087Z,69.21
2023-02-03T02:18:58.971Z,69.15
2023-02-03T02:21:39.723Z,69.63
2023-02-03T02:24:44.769Z,69.34
2023-02-03T02:27:38.028Z,69.67
2023-02-03T02:30:18.196Z,69.67
2023-02-03T02:32:58.644Z,69.94
2023-02-03T02:35:48.598Z,70.25
2023-02-03T02:38:42.253Z,70.37
2023-02-03T02:41:35.606Z,70.43
2023-02-03T02:44:13.044Z,70.34
2023-02-03T02:46:46.874Z,70.04
2023-02-03T02:49:38.281Z,69.59
2023-02-03T02:52:14.418Z,70.12
2023-02-03T02:54:48.598Z,69.92
2023-02-03T02:57:21.125Z,69.75
2023-02-03T02:59:49.752Z,69.58
2023-02-03T03:02:18.800Z,69.53
2023-02-03T03:04:50.253Z,69.47
2023-02-03T03:07:24.539Z,69.21
2023-02-03T03:10:01.611Z,69.36
2023-02-03T03:12:38.269Z,69.69
2023-02-03T03:15:17.817Z,70.39
2023-02-03T03:17:59.494Z,70.65
2023-02-03T03:20:29.056Z,70.78
2023-02-03T03:23:07.352Z,70.38
2023-02-03T03:25:43.545Z,70.44
2023-02-03T03:28:21.501Z,71.26
2023-02-03T03:30:50.186Z,70.66
2023-02-03T03:33:19.186Z,70.49
2023-02-03T03:35:50.775Z,70.38
2023-02-03T03:38:55.873Z,70.31
2023-02-03T03:42:22.959Z,70.52
2023-02-03T03:45:16.579Z,70.73
2023-02-03T03:47:50.406Z,71.04
2023-02-03T03:50:27.025Z,70.75
2023-02-03T03:52:58.257Z,70.49
2023-02-03T03:55:30.348Z,70.05
2023-02-03T03:58:07.991Z,69.57
2023-02-03T04:00:39.115Z,69.85
2023-02-03T04:03:24.715Z,69.70
2023-02-03T04:05:53.016Z,69.56
2023-02-03T04:08:21.430Z,69.17
2023-02-03T04:10:49.605Z,68.96
2023-02-03T04:13:20.381Z,68.60
2023-02-03T04:15:48.750Z,68.15
2023-02-03T04:18:17.570Z,67.92
2023-02-03T04:20:45.857Z,67.82
2023-02-03T04:23:14.340Z,67.92
2023-02-03T04:25:42.865Z,67.81
2023-02-03T04:28:11.002Z,67.77
2023-02-03T04:30:41.383Z,68.02
2023-02-03T04:33:09.380Z,68.58
2023-02-03T04:35:39.546Z,68.41
2023-02-03T04:38:07.589Z,68.49
2023-02-03T04:40:35.988Z,68.52
2023-02-03T04:43:07.954Z,68.39
2023-02-03T04:45:36.309Z,68.47
2023-02-03T04:48:05.239Z,68.64
2023-02-03T04:50:34.145Z,68.79
2023-02-03T04:53:02.616Z,68.98
2023-02-03T04:55:30.883Z,68.78
2023-02-03T04:58:00.834Z,69.07
2023-02-03T05:00:30.054Z,68.67
2023-02-03T05:02:59.152Z,68.93
2023-02-03T05:05:27.655Z,69.29
2023-02-03T05:07:56.314Z,68.97
2023-02-03T05:10:24.464Z,69.00
2023-02-03T05:12:52.901Z,69.09
2023-02-03T05:15:20.964Z,69.47
2023-02-03T05:17:51.546Z,69.60
2023-02-03T05:20:19.962Z,69.12
2023-02-03T05:22:48.392Z,69.26
2023-02-03T05:25:16.834Z,69.91
2023-02-03T05:27:45.944Z,69.78
2023-02-03T05:30:14.336Z,69.84
2023-02-03T05:32:42.647Z,69.63
2023-02-03T05:35:10.880Z,69.20
2023-02-03T05:37:39.183Z,69.87
2023-02-03T05:40:27.333Z,70.20
2023-02-03T05:42:59.579Z,71.17
2023-02-03T05:45:28.182Z,70.53
2023-02-03T05:47:56.672Z,70.65
2023-02-03T05:50:27.430Z,70.60
2023-02-03T05:52:56.951Z,70.72
2023-02-03T05:55:26.539Z,70.32
2023-02-03T05:57:55.394Z,70.54
2023-02-03T06:00:24.327Z,70.09
2023-02-03T06:03:01.070Z,70.30
2023-02-03T06:05:30.623Z,70.70
2023-02-03T06:07:59.042Z,71.00
2023-02-03T06:10:28.599Z,70.58
2023-02-03T06:12:57.416Z,69.99
2023-02-03T06:15:25.524Z,69.93
2023-02-03T06:17:53.680Z,69.87
2023-02-03T06:20:21.787Z,69.74
2023-02-03T06:22:49.898Z,69.58
2023-02-03T06:25:18.190Z,69.79
2023-02-03T06:27:46.524Z,69.60
2023-02-03T06:30:14.949Z,69.66
2023-02-03T06:32:43.965Z,69.25
2023-02-03T06:35:12.500Z,69.28
2023-02-03T06:37:41.433Z,69.21
2023-02-03T06:40:11.191Z,69.41
2023-02-03T06:42:39.786Z,69.11
2023-02-03T06:45:09.747Z,69.53
2023-02-03T06:47:41.299Z,69.35
2023-02-03T06:50:13.198Z,69.42
2023-02-03T06:52:41.825Z,69.33
2023-02-03T06:55:11.206Z,69.53
2023-02-03T06:57:47.111Z,69.36
2023-02-03T07:00:19.173Z,69.50
2023-02-03T07:02:54.358Z,69.92
2023-02-03T07:05:24.641Z,69.68
2023-02-03T07:07:52.874Z,69.71
2023-02-03T07:10:21.408Z,70.38
2023-02-03T07:12:51.160Z,70.47
2023-02-03T07:15:19.570Z,70.69
2023-02-03T07:17:54.730Z,70.36
2023-02-03T07:20:24.905Z,71.32
2023-02-03T07:22:58.947Z,70.98
2023-02-03T07:25:27.561Z,70.87
2023-02-03T07:27:55.719Z,71.23
2023-02-03T07:30:24.821Z,71.48
2023-02-03T07:32:54.076Z,71.16
2023-02-03T07:35:22.534Z,71.18
2023-02-03T07:37:52.664Z,70.88
2023-02-03T07:40:21.178Z,71.23
2023-02-03T07:42:50.041Z,70.90
2023-02-03T07:45:19.271Z,70.68
2023-02-03T07:47:50.793Z,70.62
2023-02-03T07:50:19.155Z,70.60
2023-02-03T07:52:47.223Z,71.32
2023-02-03T07:55:15.576Z,71.19
2023-02-03T07:57:45.563Z,71.46
2023-02-03T08:00:15.825Z,71.17
2023-02-03T08:02:44.624Z,71.77
2023-02-03T08:05:14.012Z,72.15
2023-02-03T08:07:43.693Z,71.97
2023-02-03T08:10:14.165Z,71.75
2023-02-03T08:12:45.373Z,71.91
2023-02-03T08:15:14.881Z,72.21
2023-02-03T08:17:44.661Z,71.73
2023-02-03T08:20:12.984Z,71.78
2023-02-03T08:22:41.508Z,71.56
2023-02-03T08:25:10.876Z,71.51
2023-02-03T08:27:40.084Z,71.38
2023-02-03T08:30:11.989Z,71.35
2023-02-03T08:32:40.338Z,71.54
2023-02-03T08:35:09.160Z,71.57
2023-02-03T08:37:39.591Z,71.84
2023-02-03T08:40:11.438Z,72.19
2023-02-03T08:42:39.576Z,72.41
2023-02-03T08:45:08.428Z,72.33
2023-02-03T08:47:40.351Z,72.21
2023-02-03T08:50:09.933Z,72.14
2023-02-03T08:52:38.454Z,72.12
2023-02-03T08:55:07.577Z,72.18
2023-02-03T08:57:36.886Z,72.17
2023-02-03T09:00:05.563Z,72.78
2023-02-03T09:02:33.745Z,72.55
2023-02-03T09:05:02.553Z,72.37
2023-02-03T09:07:32.048Z,72.76
2023-02-03T09:10:01.156Z,73.40
2023-02-03T09:12:29.973Z,73.07
2023-02-03T09:14:59.826Z,73.10
2023-02-03T09:17:28.748Z,73.05
2023-02-03T09:19:57.036Z,72.87
2023-02-03T09:22:25.149Z,72.86
2023-02-03T09:24:53.325Z,72.73
2023-02-03T09:27:21.676Z,72.62
2023-02-03T09:29:49.949Z,72.55
2023-02-03T09:32:19.568Z,72.62
2023-02-03T09:34:48.088Z,72.34
2023-02-03T09:37:17.422Z,72.40
2023-02-03T09:39:45.726Z,72.32
2023-02-03T09:42:29.538Z,72.59
2023-02-03T09:45:04.887Z,72.96
2023-02-03T09:47:36.741Z,73.22
2023-02-03T09:50:20.032Z,73.10
2023-02-03T09:52:49.060Z,73.03
2023-02-03T09:55:30.789Z,73.46
2023-02-03T09:58:21.316Z,73.78
2023-02-03T10:01:02.073Z,74.28
2023-02-03T10:03:46.603Z,74.37
2023-02-03T10:06:24.955Z,74.35
2023-02-03T10:09:32.524Z,74.24
2023-02-03T10:12:19.725Z,75.28
2023-02-03T10:15:27.468Z,75.28
2023-02-03T10:18:06.930Z,75.69
2023-02-03T10:20:52.359Z,75.54
2023-02-03T10:23:31.839Z,75.96
2023-02-03T10:26:04.081Z,75.99
2023-02-03T10:28:40.314Z,75.89
2023-02-03T10:31:18.025Z,76.02
2023-02-03T10:33:47.503Z,76.82
2023-02-03T10:36:21.718Z,75.93
2023-02-03T10:38:59.913Z,75.91
2023-02-03T10:41:31.331Z,76.03
2023-02-03T10:44:03.349Z,75.70
2023-02-03T10:46:35.556Z,75.22
2023-02-03T10:49:04.175Z,75.73
2023-02-03T10:51:41.350Z,75.51
2023-02-03T10:54:34.635Z,76.05
2023-02-03T10:57:15.341Z,76.17
2023-02-03T10:59:46.173Z,75.66
2023-02-03T11:02:31.361Z,75.98
2023-02-03T11:05:25.185Z,76.90
2023-02-03T11:07:54.798Z,76.77
2023-02-03T11:10:36.477Z,76.45
2023-02-03T11:13:16.450Z,76.75
2023-02-03T11:15:52.488Z,76.63
2023-02-03T11:18:36.340Z,77.02
2023-02-03T11:21:11.426Z,77.12
2023-02-03T11:23:51.812Z,77.16
2023-02-03T11:26:24.680Z,77.22
2023-02-03T11:28:58.626Z,77.05
2023-02-03T11:31:38.126Z,77.41
2023-02-03T11:34:18.204Z,76.78
2023-02-03T11:36:46.726Z,77.00
2023-02-03T11:39:21.770Z,78.13
2023-02-03T11:41:56.612Z,78.37
2023-02-03T12:24:51.765Z,80.00
2023-02-03T12:27:32.061Z,79.56
2023-02-03T12:30:33.540Z,78.85
2023-02-03T12:33:09.948Z,78.88
2023-02-03T12:36:13.400Z,78.21
2023-02-03T12:38:47.328Z,78.20
2023-02-03T12:41:38.572Z,77.67
2023-02-03T12:44:27.215Z,77.72
2023-02-03T12:47:05.773Z,77.24
2023-02-03T12:49:46.546Z,77.40
2023-02-03T12:52:27.027Z,76.78
2023-02-03T12:55:03.250Z,76.37
2023-02-03T12:57:38.638Z,76.12
2023-02-03T13:00:27.374Z,75.84
2023-02-03T13:03:14.578Z,75.62
2023-02-03T13:05:50.894Z,75.42
2023-02-03T13:08:50.505Z,75.43
2023-02-03T13:11:34.153Z,75.70
2023-02-03T13:14:16.653Z,75.44
2023-02-03T13:16:53.153Z,75.09
2023-02-03T13:19:27.790Z,74.71
2023-02-03T13:21:55.892Z,74.71
2023-02-03T13:24:26.786Z,73.99
2023-02-03T13:27:19.935Z,74.17
2023-02-03T13:30:17.313Z,74.33
2023-02-03T13:33:09.070Z,74.53
2023-02-03T13:36:14.447Z,74.67
2023-02-03T13:39:16.297Z,75.02
2023-02-03T13:41:55.869Z,75.41
2023-02-03T13:44:29.958Z,74.75
2023-02-03T13:47:00.181Z,74.77
2023-02-03T13:49:33.005Z,74.92
2023-02-03T13:52:01.853Z,74.38
2023-02-03T13:54:36.436Z,74.18
2023-02-03T13:57:18.415Z,74.18
2023-02-03T13:59:47.124Z,74.62
2023-02-03T14:02:21.984Z,74.13
2023-02-03T14:04:55.441Z,74.13
2023-02-03T14:07:33.733Z,74.16
2023-02-03T14:10:16.066Z,74.15
2023-02-03T14:12:50.125Z,74.00
2023-02-03T14:15:32.402Z,73.83
2023-02-03T14:18:01.952Z,73.79
2023-02-03T14:20:39.949Z,73.86
2023-02-03T14:23:14.397Z,73.42
2023-02-03T14:25:47.726Z,73.53
2023-02-03T14:28:24.340Z,73.31
2023-02-03T14:31:16.925Z,73.07
2023-02-03T14:33:59.329Z,73.62
2023-02-03T14:36:29.777Z,73.60
2023-02-03T14:39:01.791Z,73.30
2023-02-03T14:42:04.133Z,73.16
2023-02-03T14:44:51.398Z,73.35
2023-02-03T14:47:34.659Z,73.15
2023-02-03T14:50:30.529Z,72.96
2023-02-03T14:53:15.761Z,73.52
2023-02-03T14:55:57.261Z,73.30
2023-02-03T14:58:34.587Z,73.41
2023-02-03T15:01:07.462Z,73.57
2023-02-03T15:03:42.143Z,73.41
2023-02-03T15:06:41.656Z,73.53
2023-02-03T15:09:29.955Z,73.57
2023-02-03T15:11:59.316Z,74.15
2023-02-03T15:14:33.986Z,74.12
2023-02-03T15:17:11.091Z,74.56
2023-02-03T15:19:41.618Z,74.98
2023-02-03T15:22:29.767Z,75.15
2023-02-03T15:25:20.769Z,75.19
2023-02-03T15:27:49.275Z,75.48
2023-02-03T15:30:25.383Z,75.69
2023-02-03T15:33:10.541Z,75.60
2023-02-03T15:35:41.499Z,75.73
2023-02-03T15:38:20.980Z,76.05
2023-02-03T15:40:53.793Z,76.46
2023-02-03T15:43:24.627Z,76.19
2023-02-03T15:46:18.120Z,75.82
2023-02-03T15:48:53.178Z,76.19
2023-02-03T15:51:36.742Z,76.64
2023-02-03T15:54:25.539Z,77.18
2023-02-03T15:57:03.560Z,77.41
2023-02-03T15:59:38.781Z,77.02
2023-02-03T16:02:27.621Z,77.51
2023-02-03T16:04:57.392Z,77.33
2023-02-03T16:07:29.581Z,77.58
2023-02-03T16:09:59.860Z,77.26
2023-02-03T16:12:30.557Z,77.36
2023-02-03T16:15:02.055Z,76.99
2023-02-03T16:17:42.321Z,77.26
2023-02-03T16:20:13.914Z,77.21
2023-02-03T16:22:46.200Z,77.19
2023-02-03T16:25:19.333Z,77.19
2023-02-03T16:28:35.687Z,77.22
2023-02-03T16:31:37.428Z,78.01
2023-02-03T16:34:45.629Z,78.35
2023-02-03T16:37:42.998Z,78.42
2023-02-03T16:40:33.881Z,78.49
2023-02-03T16:43:21.918Z,78.57
2023-02-03T16:46:16.888Z,78.10
2023-02-03T16:49:04.476Z,78.17
2023-02-03T16:51:42.345Z,78.09
2023-02-03T16:54:13.564Z,77.72
2023-02-03T16:56:42.605Z,77.28
2023-02-03T16:59:11.388Z,77.27
2023-02-03T17:01:40.261Z,77.24
2023-02-03T17:04:08.862Z,76.92
2023-02-03T17:06:41.232Z,76.71
2023-02-03T17:09:09.878Z,76.80
2023-02-03T17:11:38.523Z,76.64
2023-02-03T17:14:06.974Z,76.46
2023-02-03T17:16:38.399Z,76.41
2023-02-03T17:19:10.353Z,76.64
2023-02-03T17:21:39.633Z,76.45
2023-02-03T17:24:08.210Z,76.59
2023-02-03T17:26:36.922Z,76.41
2023-02-03T17:29:05.708Z,76.20
2023-02-03T17:31:35.030Z,76.28
2023-02-03T17:34:04.830Z,76.57
2023-02-03T17:36:34.835Z,76.57
2023-02-03T17:55:34.251Z,77.31
2023-02-03T17:58:02.966Z,77.30
2023-02-03T18:00:32.208Z,77.12
2023-02-03T18:03:01.280Z,76.75
2023-02-03T18:05:29.899Z,76.56
2023-02-03T18:08:03.046Z,76.60
2023-02-03T18:10:37.444Z,76.34
2023-02-03T18:13:05.975Z,76.08
2023-02-03T18:15:41.870Z,76.18
2023-02-03T18:18:12.388Z,76.44
2023-02-03T18:20:41.151Z,76.18
2023-02-03T18:23:10.095Z,76.34
2023-02-03T18:25:39.356Z,76.25
2023-02-03T18:28:07.998Z,76.23
2023-02-03T18:30:36.838Z,76.06
2023-02-03T18:33:05.973Z,75.98
2023-02-03T18:35:34.659Z,76.06
2023-02-03T18:38:02.994Z,76.18
2023-02-03T18:40:32.167Z,76.29
2023-02-03T18:43:02.826Z,76.27
2023-02-03T18:45:34.836Z,76.29
2023-02-03T18:48:03.787Z,76.14
2023-02-03T18:50:32.756Z,76.36
2023-02-03T18:53:04.035Z,76.04
2023-02-03T18:55:32.829Z,76.19
2023-02-03T18:58:01.374Z,76.16
2023-02-03T19:00:30.204Z,76.47
2023-02-03T19:02:59.099Z,76.23
2023-02-03T19:05:27.959Z,75.98
2023-02-03T19:07:56.903Z,76.10
2023-02-03T19:10:26.012Z,75.83
2023-02-03T19:12:54.894Z,75.83
2023-02-03T19:15:23.369Z,75.76
2023-02-03T19:17:52.034Z,76.18
2023-02-03T19:20:20.842Z,75.93
2023-02-03T19:22:51.234Z,76.13
2023-02-03T19:25:19.881Z,76.05
2023-02-03T19:27:49.544Z,75.99
2023-02-03T19:30:18.305Z,75.66
2023-02-03T19:32:47.874Z,75.44
2023-02-03T19:35:16.739Z,75.63
2023-02-03T19:37:45.180Z,75.64
2023-02-03T19:40:17.929Z,75.48
2023-02-03T19:42:50.987Z,75.50
2023-02-03T19:45:20.742Z,75.62
2023-02-03T19:47:49.934Z,75.41
2023-02-03T19:50:18.786Z,75.53
2023-02-03T19:52:49.998Z,75.51
2023-02-03T19:55:18.657Z,75.49
2023-02-03T19:57:47.565Z,75.29
2023-02-03T20:00:16.638Z,75.32
2023-02-03T20:02:45.642Z,75.51
2023-02-03T20:05:15.440Z,75.53
2023-02-03T20:07:43.728Z,75.77
2023-02-03T20:10:14.035Z,75.89
2023-02-03T20:12:47.070Z,75.65
2023-02-03T20:15:15.747Z,74.99
2023-02-03T20:17:45.297Z,74.80
2023-02-03T20:20:14.066Z,74.74
2023-02-03T20:22:42.620Z,74.24
2023-02-03T20:25:11.853Z,74.23
2023-02-03T20:27:40.787Z,73.61
2023-02-03T20:30:10.235Z,72.77
2023-02-03T20:32:39.638Z,72.09
2023-02-03T20:35:09.088Z,71.79
2023-02-03T20:37:37.417Z,70.80
2023-02-03T20:40:33.072Z,70.28
2023-02-03T20:43:06.302Z,70.23
2023-02-03T20:45:35.031Z,69.97
2023-02-03T20:48:03.693Z,69.92
2023-02-03T20:50:42.224Z,69.64
2023-02-03T20:53:17.682Z,69.41
2023-02-03T20:55:46.538Z,69.03
2023-02-03T20:58:27.087Z,69.24
2023-02-03T21:00:57.874Z,69.20
2023-02-03T21:03:46.156Z,68.81
2023-02-03T21:06:17.207Z,69.17
2023-02-03T21:08:47.703Z,69.30
2023-02-03T21:11:18.864Z,69.29
2023-02-03T21:13:50.214Z,69.39
2023-02-03T21:16:21.143Z,69.41
2023-02-03T21:18:56.364Z,69.50
2023-02-03T21:21:42.495Z,69.81
2023-02-03T21:24:30.440Z,69.97
2023-02-03T21:27:00.792Z,70.16
2023-02-03T21:29:37.136Z,70.06
2023-02-03T21:32:13.286Z,70.39
2023-02-03T21:34:45.407Z,70.81
2023-02-03T21:37:37.003Z,71.55
2023-02-03T21:40:33.362Z,71.72
2023-02-03T21:43:03.534Z,72.68
2023-02-03T21:46:00.336Z,72.88
2023-02-03T21:48:37.957Z,73.05
2023-02-03T21:51:23.725Z,72.89
2023-02-03T21:54:03.361Z,73.68
2023-02-03T21:56:42.174Z,73.92
2023-02-03T21:59:29.871Z,73.91
2023-02-03T22:01:58.854Z,73.89
2023-02-03T22:04:32.080Z,73.80
2023-02-03T22:07:00.609Z,73.86
2023-02-03T22:09:29.347Z,73.89
2023-02-03T22:11:57.871Z,73.42
2023-02-03T22:14:26.585Z,73.14
2023-02-03T22:16:55.041Z,72.91
2023-02-03T22:19:23.588Z,73.09
2023-02-03T22:21:53.865Z,73.64
2023-02-03T22:24:22.521Z,73.24
2023-02-03T22:26:51.247Z,72.92
2023-02-03T22:29:21.410Z,72.90
2023-02-03T22:31:50.089Z,73.06
2023-02-03T22:34:19.806Z,73.89
2023-02-03T22:36:48.031Z,74.34
2023-02-03T22:39:16.153Z,74.55
2023-02-03T22:41:45.023Z,74.59
2023-02-03T22:44:16.530Z,75.44
2023-02-03T22:46:45.292Z,75.45
2023-02-03T22:49:13.852Z,75.54
2023-02-03T22:51:42.529Z,75.24
2023-02-03T22:54:11.082Z,75.13
2023-02-03T22:56:39.501Z,75.08
2023-02-03T22:59:07.962Z,75.14
2023-02-03T23:01:37.134Z,75.18
2023-02-03T23:04:06.069Z,75.47
2023-02-03T23:06:35.028Z,75.61
2023-02-03T23:09:03.326Z,75.44
2023-02-03T23:11:32.192Z,75.58
2023-02-03T23:14:01.645Z,76.13
2023-02-03T23:16:30.291Z,76.51
2023-02-03T23:18:58.997Z,76.24
2023-02-03T23:21:27.571Z,76.30
2023-02-03T23:23:56.187Z,76.43
2023-02-03T23:26:26.080Z,76.51
2023-02-03T23:28:54.771Z,76.54
2023-02-03T23:31:23.515Z,76.70
2023-02-03T23:34:10.267Z,76.85
2023-02-03T23:36:38.846Z,77.52
2023-02-03T23:39:07.858Z,77.42
2023-02-03T23:41:36.965Z,77.41
2023-02-03T23:44:05.798Z,77.25
2023-02-03T23:46:34.576Z,76.75
2023-02-03T23:49:03.098Z,76.49
2023-02-03T23:51:31.671Z,76.06
2023-02-03T23:54:00.220Z,75.80
2023-02-03T23:56:28.758Z,75.28
2023-02-03T23:58:57.074Z,74.94
